Impacts METAR Board
IDs:

KMCO - Orlando Intl, FL, US

Updated at: 0200 UTC 12 May 2021
Potential Impact None Slight Moderate High
Time 11/14Z 11/15Z 11/16Z 11/17Z 11/18Z 11/19Z 11/20Z 11/21Z 11/22Z 11/23Z 12/00Z 12/01Z 12/02Z
Temp84 85 86 88 90 88 88 83 83 81 78 77 76
Dewpt67 67 67 67 65 64 64 69 67 71 67 67 68
Altim30.11 30.10 30.10 30.08 30.05 30.04 30.03 30.02 30.04 30.04 30.05 30.06 30.06
VIS10 10 10 10 10 10 10 10 10 10 10 10 10
CIG-- 280 280 280 280 250 190 130 130 130 250 250 240
CoverSCTBKNBKNBKNBKNBKNBKNBKNBKNBKNBKNBKNBKN
FltCatVFRVFRVFRVFRVFRVFRVFRVFRVFRVFRVFRVFRVFR
WX--------------------------
WDir016018001802000330360407050120
WSpd0 4 4 5 7 5 5 8 7 15 8 4 4
WGst-- -- -- -- -- -- -- -- -- -- -- -- --
Raw hourly METARs
KMCO 111353Z 00000KT 10SM FEW030 FEW065 SCT280 29/19 A3011 RMK AO2 SLP194 T02890194
KMCO 111453Z 16004KT 10SM FEW035 SCT150 BKN280 29/19 A3010 RMK AO2 SLP190 T02940194 50004
KMCO 111553Z 18004KT 10SM FEW042 SCT150 BKN280 30/19 A3010 RMK AO2 SLP190 T03000194
KMCO 111653Z VRB05KT 10SM FEW043 SCT070 SCT150 BKN280 31/19 A3008 RMK AO2 SLP183 T03110194
KMCO 111753Z 18007KT 10SM SCT050 SCT150 BKN280 32/18 A3005 RMK AO2 SLP175 CB DSNT NW T03220183 10322 20244 58015
KMCO 111853Z 20005KT 10SM FEW070 SCT130 BKN250 31/18 A3004 RMK AO2 LTG DSNT NW SLP169 T03110178
KMCO 111953Z VRB05KT 10SM FEW070 SCT095 SCT120 BKN190 BKN250 31/18 A3003 RMK AO2 LTG DSNT N AND W SLP167 T03110178
KMCO 112053Z 33008KT 10SM FEW050 FEW080 BKN130 BKN250 28/21 A3002 RMK AO2 LTG DSNT NE SLP165 T02830206 56009
KMCO 112153Z 36007KT 10SM FEW055 SCT100 BKN130 BKN250 28/19 A3004 RMK AO2 LTG DSNT NE AND E SLP170 T02830194
KMCO 112253Z 04015KT 10SM FEW055 SCT100 BKN130 BKN250 27/22 A3004 RMK AO2 LTG DSNT E AND SE AND NW SLP170 T02720217
KMCO 112353Z 07008KT 10SM FEW055 FEW100 SCT150 BKN250 26/19 A3005 RMK AO2 SLP175 T02560194 10328 20256 51009
KMCO 120053Z 05004KT 10SM FEW100 SCT150 BKN250 25/19 A3006 RMK AO2 SLP176 T02500194
KMCO 120153Z 12004KT 10SM FEW150 BKN240 BKN300 24/20 A3006 RMK AO2 SLP179 T02440200



Page loaded:  02:00 UTC  |   07:00 PM Pacific  |   08:00 PM Mountain  |   09:00 PM Central  |   10:00 PM Eastern

 

ADVISORIES

FORECASTS

FORECASTS

OBSERVATIONS

USER TOOLS

ABOUT US